sensor_id;sensor_type;location;lat;lon;timestamp;temperature;humidity
37342;DHT22;58643;49.052;8.518;2022-08-03T00:01:29;20.30;94.20
37342;DHT22;58643;49.052;8.518;2022-08-03T00:03:55;20.40;94.00
37342;DHT22;58643;49.052;8.518;2022-08-03T00:06:21;21.30;94.40
37342;DHT22;58643;49.052;8.518;2022-08-03T00:08:46;20.50;94.30
37342;DHT22;58643;49.052;8.518;2022-08-03T00:11:12;20.50;94.20
37342;DHT22;58643;49.052;8.518;2022-08-03T00:13:38;21.00;94.30
37342;DHT22;58643;49.052;8.518;2022-08-03T00:16:04;20.50;94.30
37342;DHT22;58643;49.052;8.518;2022-08-03T00:18:29;20.30;94.40
37342;DHT22;58643;49.052;8.518;2022-08-03T00:20:55;20.20;94.70
37342;DHT22;58643;49.052;8.518;2022-08-03T00:23:21;20.30;95.40
37342;DHT22;58643;49.052;8.518;2022-08-03T00:25:46;20.90;95.80
37342;DHT22;58643;49.052;8.518;2022-08-03T00:28:12;19.90;95.80
37342;DHT22;58643;49.052;8.518;2022-08-03T00:30:38;20.90;96.10
37342;DHT22;58643;49.052;8.518;2022-08-03T00:33:03;20.00;95.70
37342;DHT22;58643;49.052;8.518;2022-08-03T00:35:29;20.00;96.00
37342;DHT22;58643;49.052;8.518;2022-08-03T00:37:56;19.90;95.80
37342;DHT22;58643;49.052;8.518;2022-08-03T00:40:21;19.90;95.90
37342;DHT22;58643;49.052;8.518;2022-08-03T00:42:56;19.90;96.00
37342;DHT22;58643;49.052;8.518;2022-08-03T00:45:29;19.80;96.30
37342;DHT22;58643;49.052;8.518;2022-08-03T00:47:56;19.80;96.20
37342;DHT22;58643;49.052;8.518;2022-08-03T00:50:23;19.80;96.20
37342;DHT22;58643;49.052;8.518;2022-08-03T00:52:52;19.80;96.30
37342;DHT22;58643;49.052;8.518;2022-08-03T00:55:19;19.80;96.80
37342;DHT22;58643;49.052;8.518;2022-08-03T00:57:45;19.70;96.70
37342;DHT22;58643;49.052;8.518;2022-08-03T01:00:14;19.90;96.80
37342;DHT22;58643;49.052;8.518;2022-08-03T01:02:40;19.60;97.00
37342;DHT22;58643;49.052;8.518;2022-08-03T01:05:06;19.80;97.30
37342;DHT22;58643;49.052;8.518;2022-08-03T01:07:59;19.60;97.30
37342;DHT22;58643;49.052;8.518;2022-08-03T01:16:06;19.40;97.30
37342;DHT22;58643;49.052;8.518;2022-08-03T01:18:51;19.40;96.80
37342;DHT22;58643;49.052;8.518;2022-08-03T01:21:33;19.40;96.70
37342;DHT22;58643;49.052;8.518;2022-08-03T01:30:11;19.50;96.70
37342;DHT22;58643;49.052;8.518;2022-08-03T01:38:04;19.50;97.80
37342;DHT22;58643;49.052;8.518;2022-08-03T01:40:33;19.40;98.10
37342;DHT22;58643;49.052;8.518;2022-08-03T01:43:02;19.30;98.30
37342;DHT22;58643;49.052;8.518;2022-08-03T01:45:29;19.50;98.40
37342;DHT22;58643;49.052;8.518;2022-08-03T01:47:55;19.30;98.40
37342;DHT22;58643;49.052;8.518;2022-08-03T01:50:25;19.50;98.50
37342;DHT22;58643;49.052;8.518;2022-08-03T01:52:52;19.20;98.50
37342;DHT22;58643;49.052;8.518;2022-08-03T01:55:20;19.20;98.40
37342;DHT22;58643;49.052;8.518;2022-08-03T01:57:48;19.20;98.40
37342;DHT22;58643;49.052;8.518;2022-08-03T02:00:14;19.80;98.70
37342;DHT22;58643;49.052;8.518;2022-08-03T02:02:42;19.10;98.40
37342;DHT22;58643;49.052;8.518;2022-08-03T02:05:11;19.20;98.60
37342;DHT22;58643;49.052;8.518;2022-08-03T02:07:41;19.50;98.80
37342;DHT22;58643;49.052;8.518;2022-08-03T02:10:08;20.80;99.00
37342;DHT22;58643;49.052;8.518;2022-08-03T02:12:36;19.20;98.70
37342;DHT22;58643;49.052;8.518;2022-08-03T02:15:04;16.50;98.40
37342;DHT22;58643;49.052;8.518;2022-08-03T02:17:31;19.10;98.60
37342;DHT22;58643;49.052;8.518;2022-08-03T02:19:59;19.10;98.50
37342;DHT22;58643;49.052;8.518;2022-08-03T02:22:27;19.10;98.90
37342;DHT22;58643;49.052;8.518;2022-08-03T02:24:53;19.00;99.00
37342;DHT22;58643;49.052;8.518;2022-08-03T02:27:21;18.90;99.00
37342;DHT22;58643;49.052;8.518;2022-08-03T02:30:04;19.10;99.40
37342;DHT22;58643;49.052;8.518;2022-08-03T02:32:38;18.70;98.90
37342;DHT22;58643;49.052;8.518;2022-08-03T02:35:09;18.80;99.80
37342;DHT22;58643;49.052;8.518;2022-08-03T02:37:41;18.60;99.90
37342;DHT22;58643;49.052;8.518;2022-08-03T02:40:08;18.50;99.90
37342;DHT22;58643;49.052;8.518;2022-08-03T02:42:35;18.40;99.90
37342;DHT22;58643;49.052;8.518;2022-08-03T02:45:05;18.40;99.90
37342;DHT22;58643;49.052;8.518;2022-08-03T02:47:35;18.40;99.90
37342;DHT22;58643;49.052;8.518;2022-08-03T02:50:02;18.70;99.90
37342;DHT22;58643;49.052;8.518;2022-08-03T02:52:29;18.30;99.90
37342;DHT22;58643;49.052;8.518;2022-08-03T02:54:59;18.50;99.90
37342;DHT22;58643;49.052;8.518;2022-08-03T02:57:27;18.30;99.90
37342;DHT22;58643;49.052;8.518;2022-08-03T02:59:54;18.80;99.90
37342;DHT22;58643;49.052;8.518;2022-08-03T03:02:21;18.60;99.90
37342;DHT22;58643;49.052;8.518;2022-08-03T03:04:50;18.50;99.90
37342;DHT22;58643;49.052;8.518;2022-08-03T03:07:17;18.20;99.90
37342;DHT22;58643;49.052;8.518;2022-08-03T03:09:44;18.40;99.90
37342;DHT22;58643;49.052;8.518;2022-08-03T03:12:12;18.40;99.90
37342;DHT22;58643;49.052;8.518;2022-08-03T03:14:38;18.30;99.90
37342;DHT22;58643;49.052;8.518;2022-08-03T03:17:08;18.90;99.90
37342;DHT22;58643;49.052;8.518;2022-08-03T03:19:35;18.20;99.90
37342;DHT22;58643;49.052;8.518;2022-08-03T03:22:02;18.30;99.90
37342;DHT22;58643;49.052;8.518;2022-08-03T03:24:29;18.60;99.90
37342;DHT22;58643;49.052;8.518;2022-08-03T03:26:55;18.40;99.90
37342;DHT22;58643;49.052;8.518;2022-08-03T03:29:22;18.60;99.90
37342;DHT22;58643;49.052;8.518;2022-08-03T03:31:48;18.30;99.90
37342;DHT22;58643;49.052;8.518;2022-08-03T03:34:14;18.20;99.90
37342;DHT22;58643;49.052;8.518;2022-08-03T03:36:40;18.50;99.90
37342;DHT22;58643;49.052;8.518;2022-08-03T03:39:05;18.20;99.90
37342;DHT22;58643;49.052;8.518;2022-08-03T03:41:31;17.90;99.90
37342;DHT22;58643;49.052;8.518;2022-08-03T03:43:57;18.30;99.90
37342;DHT22;58643;49.052;8.518;2022-08-03T03:46:23;18.10;99.90
37342;DHT22;58643;49.052;8.518;2022-08-03T03:48:49;18.00;99.90
37342;DHT22;58643;49.052;8.518;2022-08-03T03:51:15;20.00;99.90
37342;DHT22;58643;49.052;8.518;2022-08-03T03:53:53;18.40;99.90
37342;DHT22;58643;49.052;8.518;2022-08-03T03:56:19;19.80;99.90
37342;DHT22;58643;49.052;8.518;2022-08-03T03:58:45;18.90;99.90
37342;DHT22;58643;49.052;8.518;2022-08-03T04:01:11;18.30;99.90
37342;DHT22;58643;49.052;8.518;2022-08-03T04:03:37;18.30;99.90
37342;DHT22;58643;49.052;8.518;2022-08-03T04:06:03;18.60;99.90
37342;DHT22;58643;49.052;8.518;2022-08-03T04:08:47;19.50;99.90
37342;DHT22;58643;49.052;8.518;2022-08-03T04:11:37;18.30;99.90
37342;DHT22;58643;49.052;8.518;2022-08-03T04:14:24;18.20;99.90
37342;DHT22;58643;49.052;8.518;2022-08-03T04:16:55;18.10;99.90
37342;DHT22;58643;49.052;8.518;2022-08-03T04:19:41;18.20;99.90
37342;DHT22;58643;49.052;8.518;2022-08-03T04:22:12;19.10;99.90
37342;DHT22;58643;49.052;8.518;2022-08-03T04:24:43;18.70;99.90
37342;DHT22;58643;49.052;8.518;2022-08-03T04:27:13;19.90;99.90
37342;DHT22;58643;49.052;8.518;2022-08-03T04:29:45;18.30;99.90
37342;DHT22;58643;49.052;8.518;2022-08-03T04:32:11;18.10;99.90
37342;DHT22;58643;49.052;8.518;2022-08-03T04:34:38;18.60;99.90
37342;DHT22;58643;49.052;8.518;2022-08-03T04:37:10;18.10;99.90
37342;DHT22;58643;49.052;8.518;2022-08-03T04:39:38;18.10;99.90
37342;DHT22;58643;49.052;8.518;2022-08-03T04:42:05;18.00;99.90
37342;DHT22;58643;49.052;8.518;2022-08-03T04:44:35;18.10;99.90
37342;DHT22;58643;49.052;8.518;2022-08-03T04:47:02;18.10;99.90
37342;DHT22;58643;49.052;8.518;2022-08-03T04:49:29;18.10;99.90
37342;DHT22;58643;49.052;8.518;2022-08-03T04:51:55;18.30;99.90
37342;DHT22;58643;49.052;8.518;2022-08-03T04:54:20;18.00;99.90
37342;DHT22;58643;49.052;8.518;2022-08-03T04:56:46;18.50;99.90
37342;DHT22;58643;49.052;8.518;2022-08-03T04:59:12;18.30;99.90
37342;DHT22;58643;49.052;8.518;2022-08-03T05:01:41;18.50;99.90
37342;DHT22;58643;49.052;8.518;2022-08-03T05:04:06;18.30;99.90
37342;DHT22;58643;49.052;8.518;2022-08-03T05:06:32;18.70;99.90
37342;DHT22;58643;49.052;8.518;2022-08-03T05:08:58;18.40;99.90
37342;DHT22;58643;49.052;8.518;2022-08-03T05:11:23;19.10;99.90
37342;DHT22;58643;49.052;8.518;2022-08-03T05:13:49;19.30;99.90
37342;DHT22;58643;49.052;8.518;2022-08-03T05:16:14;18.70;99.90
37342;DHT22;58643;49.052;8.518;2022-08-03T05:18:41;19.00;99.90
37342;DHT22;58643;49.052;8.518;2022-08-03T05:21:07;18.70;99.90
37342;DHT22;58643;49.052;8.518;2022-08-03T05:23:33;18.80;99.90
37342;DHT22;58643;49.052;8.518;2022-08-03T05:25:59;19.20;99.90
37342;DHT22;58643;49.052;8.518;2022-08-03T05:28:25;19.30;99.90
37342;DHT22;58643;49.052;8.518;2022-08-03T05:30:51;19.20;99.90
37342;DHT22;58643;49.052;8.518;2022-08-03T05:33:16;19.30;99.90
37342;DHT22;58643;49.052;8.518;2022-08-03T05:35:42;19.70;99.70
37342;DHT22;58643;49.052;8.518;2022-08-03T05:38:08;19.70;99.50
37342;DHT22;58643;49.052;8.518;2022-08-03T05:40:33;19.70;99.50
37342;DHT22;58643;49.052;8.518;2022-08-03T05:43:00;19.80;99.30
37342;DHT22;58643;49.052;8.518;2022-08-03T05:45:26;20.10;98.80
37342;DHT22;58643;49.052;8.518;2022-08-03T05:47:51;20.10;98.60
37342;DHT22;58643;49.052;8.518;2022-08-03T05:50:19;20.20;98.30
37342;DHT22;58643;49.052;8.518;2022-08-03T05:52:45;21.20;97.80
37342;DHT22;58643;49.052;8.518;2022-08-03T05:55:11;20.50;97.60
37342;DHT22;58643;49.052;8.518;2022-08-03T05:57:38;20.60;97.40
37342;DHT22;58643;49.052;8.518;2022-08-03T06:00:06;21.30;97.30
37342;DHT22;58643;49.052;8.518;2022-08-03T06:02:33;20.80;96.90
37342;DHT22;58643;49.052;8.518;2022-08-03T06:04:59;21.00;96.70
37342;DHT22;58643;49.052;8.518;2022-08-03T06:07:25;21.00;96.70
37342;DHT22;58643;49.052;8.518;2022-08-03T06:09:51;21.30;97.00
37342;DHT22;58643;49.052;8.518;2022-08-03T06:12:16;21.20;97.10
37342;DHT22;58643;49.052;8.518;2022-08-03T06:14:42;21.20;97.10
37342;DHT22;58643;49.052;8.518;2022-08-03T06:17:08;21.20;97.40
37342;DHT22;58643;49.052;8.518;2022-08-03T06:19:33;21.50;97.20
37342;DHT22;58643;49.052;8.518;2022-08-03T06:21:59;21.50;97.20
37342;DHT22;58643;49.052;8.518;2022-08-03T06:24:25;21.70;97.00
37342;DHT22;58643;49.052;8.518;2022-08-03T06:26:50;22.30;97.00
37342;DHT22;58643;49.052;8.518;2022-08-03T06:29:16;21.90;96.70
37342;DHT22;58643;49.052;8.518;2022-08-03T06:31:41;20.20;96.30
37342;DHT22;58643;49.052;8.518;2022-08-03T06:34:07;22.30;96.80
37342;DHT22;58643;49.052;8.518;2022-08-03T06:36:33;22.20;96.50
37342;DHT22;58643;49.052;8.518;2022-08-03T06:38:59;22.60;96.10
37342;DHT22;58643;49.052;8.518;2022-08-03T06:41:26;22.40;96.10
37342;DHT22;58643;49.052;8.518;2022-08-03T06:43:51;22.50;95.40
37342;DHT22;58643;49.052;8.518;2022-08-03T06:46:18;22.70;95.00
37342;DHT22;58643;49.052;8.518;2022-08-03T06:48:43;22.80;95.00
37342;DHT22;58643;49.052;8.518;2022-08-03T06:51:09;22.90;94.50
37342;DHT22;58643;49.052;8.518;2022-08-03T06:53:35;23.10;94.10
37342;DHT22;58643;49.052;8.518;2022-08-03T06:56:01;23.20;93.60
37342;DHT22;58643;49.052;8.518;2022-08-03T06:58:26;23.40;93.50
37342;DHT22;58643;49.052;8.518;2022-08-03T07:00:52;23.50;92.90
37342;DHT22;58643;49.052;8.518;2022-08-03T07:03:17;23.50;93.00
37342;DHT22;58643;49.052;8.518;2022-08-03T07:05:43;23.90;92.40
37342;DHT22;58643;49.052;8.518;2022-08-03T07:08:11;23.70;92.30
37342;DHT22;58643;49.052;8.518;2022-08-03T07:10:37;23.90;92.20
37342;DHT22;58643;49.052;8.518;2022-08-03T07:13:03;24.10;91.70
37342;DHT22;58643;49.052;8.518;2022-08-03T07:15:29;24.20;91.40
37342;DHT22;58643;49.052;8.518;2022-08-03T07:17:55;24.50;90.80
37342;DHT22;58643;49.052;8.518;2022-08-03T07:20:21;24.70;90.50
37342;DHT22;58643;49.052;8.518;2022-08-03T07:22:47;24.70;90.00
37342;DHT22;58643;49.052;8.518;2022-08-03T07:25:13;24.70;89.70
37342;DHT22;58643;49.052;8.518;2022-08-03T07:27:42;24.90;89.40
37342;DHT22;58643;49.052;8.518;2022-08-03T07:30:08;25.10;88.10
37342;DHT22;58643;49.052;8.518;2022-08-03T07:32:34;25.10;87.90
37342;DHT22;58643;49.052;8.518;2022-08-03T07:35:00;25.40;87.90
37342;DHT22;58643;49.052;8.518;2022-08-03T07:37:25;25.40;86.60
37342;DHT22;58643;49.052;8.518;2022-08-03T07:39:51;25.60;87.10
37342;DHT22;58643;49.052;8.518;2022-08-03T07:42:16;25.80;85.50
37342;DHT22;58643;49.052;8.518;2022-08-03T07:44:42;25.90;84.80
37342;DHT22;58643;49.052;8.518;2022-08-03T07:47:08;25.90;84.40
37342;DHT22;58643;49.052;8.518;2022-08-03T07:49:38;26.20;83.00
37342;DHT22;58643;49.052;8.518;2022-08-03T07:52:04;26.30;84.30
37342;DHT22;58643;49.052;8.518;2022-08-03T07:54:48;26.50;82.20
37342;DHT22;58643;49.052;8.518;2022-08-03T07:57:14;26.60;81.40
37342;DHT22;58643;49.052;8.518;2022-08-03T07:59:39;26.70;80.60
37342;DHT22;58643;49.052;8.518;2022-08-03T08:02:05;27.00;81.20
37342;DHT22;58643;49.052;8.518;2022-08-03T08:04:31;27.00;80.30
37342;DHT22;58643;49.052;8.518;2022-08-03T08:06:57;27.40;79.90
37342;DHT22;58643;49.052;8.518;2022-08-03T08:09:22;27.30;79.00
37342;DHT22;58643;49.052;8.518;2022-08-03T08:11:48;27.30;78.90
37342;DHT22;58643;49.052;8.518;2022-08-03T08:14:14;27.50;78.30
37342;DHT22;58643;49.052;8.518;2022-08-03T08:16:39;27.50;77.00
37342;DHT22;58643;49.052;8.518;2022-08-03T08:19:05;27.60;76.70
37342;DHT22;58643;49.052;8.518;2022-08-03T08:21:31;27.30;76.20
37342;DHT22;58643;49.052;8.518;2022-08-03T08:23:56;27.90;75.70
37342;DHT22;58643;49.052;8.518;2022-08-03T08:26:22;28.20;75.10
37342;DHT22;58643;49.052;8.518;2022-08-03T08:28:47;28.30;74.50
37342;DHT22;58643;49.052;8.518;2022-08-03T08:31:13;28.40;73.10
37342;DHT22;58643;49.052;8.518;2022-08-03T08:33:39;28.40;72.40
37342;DHT22;58643;49.052;8.518;2022-08-03T08:36:04;28.50;73.50
37342;DHT22;58643;49.052;8.518;2022-08-03T08:38:30;28.60;73.60
37342;DHT22;58643;49.052;8.518;2022-08-03T08:40:56;29.00;71.40
37342;DHT22;58643;49.052;8.518;2022-08-03T08:43:21;29.00;70.90
37342;DHT22;58643;49.052;8.518;2022-08-03T08:45:48;29.10;71.60
37342;DHT22;58643;49.052;8.518;2022-08-03T08:48:17;29.30;70.10
37342;DHT22;58643;49.052;8.518;2022-08-03T08:50:44;29.40;68.60
37342;DHT22;58643;49.052;8.518;2022-08-03T08:53:10;29.40;68.60
37342;DHT22;58643;49.052;8.518;2022-08-03T08:55:37;29.50;68.10
37342;DHT22;58643;49.052;8.518;2022-08-03T08:58:04;29.70;68.40
37342;DHT22;58643;49.052;8.518;2022-08-03T09:00:30;29.80;67.40
37342;DHT22;58643;49.052;8.518;2022-08-03T09:02:56;29.90;67.60
37342;DHT22;58643;49.052;8.518;2022-08-03T09:05:22;30.10;67.70
37342;DHT22;58643;49.052;8.518;2022-08-03T09:07:48;30.00;66.20
37342;DHT22;58643;49.052;8.518;2022-08-03T09:10:16;30.30;65.60
37342;DHT22;58643;49.052;8.518;2022-08-03T09:12:48;30.40;65.90
37342;DHT22;58643;49.052;8.518;2022-08-03T09:15:40;30.60;65.00
37342;DHT22;58643;49.052;8.518;2022-08-03T09:18:06;30.80;63.90
37342;DHT22;58643;49.052;8.518;2022-08-03T09:20:34;30.90;63.90
37342;DHT22;58643;49.052;8.518;2022-08-03T09:23:06;31.00;63.70
37342;DHT22;58643;49.052;8.518;2022-08-03T09:25:35;31.00;62.70
37342;DHT22;58643;49.052;8.518;2022-08-03T09:28:12;31.10;62.80
37342;DHT22;58643;49.052;8.518;2022-08-03T09:30:40;31.20;62.30
37342;DHT22;58643;49.052;8.518;2022-08-03T09:33:09;31.30;63.00
37342;DHT22;58643;49.052;8.518;2022-08-03T09:35:45;31.40;61.40
37342;DHT22;58643;49.052;8.518;2022-08-03T09:38:20;31.40;61.10
37342;DHT22;58643;49.052;8.518;2022-08-03T09:40:49;31.40;59.90
37342;DHT22;58643;49.052;8.518;2022-08-03T09:43:15;31.50;60.80
37342;DHT22;58643;49.052;8.518;2022-08-03T09:45:41;31.70;60.60
37342;DHT22;58643;49.052;8.518;2022-08-03T09:48:28;31.80;59.90
37342;DHT22;58643;49.052;8.518;2022-08-03T09:50:57;31.90;58.90
37342;DHT22;58643;49.052;8.518;2022-08-03T09:53:23;32.20;59.00
37342;DHT22;58643;49.052;8.518;2022-08-03T09:55:57;32.90;57.80
37342;DHT22;58643;49.052;8.518;2022-08-03T09:58:25;33.70;56.00
37342;DHT22;58643;49.052;8.518;2022-08-03T10:01:02;33.90;55.20
37342;DHT22;58643;49.052;8.518;2022-08-03T10:03:31;33.90;54.00
37342;DHT22;58643;49.052;8.518;2022-08-03T10:05:57;33.80;54.70
37342;DHT22;58643;49.052;8.518;2022-08-03T10:08:23;33.80;54.70
37342;DHT22;58643;49.052;8.518;2022-08-03T10:10:50;33.90;54.10
37342;DHT22;58643;49.052;8.518;2022-08-03T10:13:18;33.90;54.20
37342;DHT22;58643;49.052;8.518;2022-08-03T10:15:45;33.90;53.80
37342;DHT22;58643;49.052;8.518;2022-08-03T10:18:10;33.80;53.90
37342;DHT22;58643;49.052;8.518;2022-08-03T10:20:43;33.90;53.50
37342;DHT22;58643;49.052;8.518;2022-08-03T10:23:10;34.10;53.30
37342;DHT22;58643;49.052;8.518;2022-08-03T10:25:37;34.30;53.40
37342;DHT22;58643;49.052;8.518;2022-08-03T10:28:05;34.40;53.40
37342;DHT22;58643;49.052;8.518;2022-08-03T10:30:32;34.50;52.60
37342;DHT22;58643;49.052;8.518;2022-08-03T10:33:06;34.40;52.30
37342;DHT22;58643;49.052;8.518;2022-08-03T10:35:36;34.40;52.00
37342;DHT22;58643;49.052;8.518;2022-08-03T10:38:10;33.80;52.10
37342;DHT22;58643;49.052;8.518;2022-08-03T10:40:37;33.50;52.70
37342;DHT22;58643;49.052;8.518;2022-08-03T10:43:17;33.30;53.30
37342;DHT22;58643;49.052;8.518;2022-08-03T10:45:45;33.20;53.40
37342;DHT22;58643;49.052;8.518;2022-08-03T10:48:11;32.90;53.20
37342;DHT22;58643;49.052;8.518;2022-08-03T10:50:38;32.80;53.90
37342;DHT22;58643;49.052;8.518;2022-08-03T10:53:05;32.70;54.00
37342;DHT22;58643;49.052;8.518;2022-08-03T10:55:44;33.30;53.90
37342;DHT22;58643;49.052;8.518;2022-08-03T10:58:53;33.50;52.70
37342;DHT22;58643;49.052;8.518;2022-08-03T11:01:52;33.80;52.10
37342;DHT22;58643;49.052;8.518;2022-08-03T11:04:22;34.00;51.80
37342;DHT22;58643;49.052;8.518;2022-08-03T11:07:23;34.00;51.90
37342;DHT22;58643;49.052;8.518;2022-08-03T11:09:51;34.00;51.50
37342;DHT22;58643;49.052;8.518;2022-08-03T11:12:27;34.00;51.90
37342;DHT22;58643;49.052;8.518;2022-08-03T11:14:55;34.20;51.10
37342;DHT22;58643;49.052;8.518;2022-08-03T11:17:20;34.40;50.80
37342;DHT22;58643;49.052;8.518;2022-08-03T11:19:51;34.60;50.60
37342;DHT22;58643;49.052;8.518;2022-08-03T11:22:19;34.50;51.00
37342;DHT22;58643;49.052;8.518;2022-08-03T11:30:05;34.30;49.00
37342;DHT22;58643;49.052;8.518;2022-08-03T11:37:32;34.20;49.40
37342;DHT22;58643;49.052;8.518;2022-08-03T11:39:58;34.40;50.30
37342;DHT22;58643;49.052;8.518;2022-08-03T11:44:52;34.40;48.80
37342;DHT22;58643;49.052;8.518;2022-08-03T11:47:20;34.40;48.60
37342;DHT22;58643;49.052;8.518;2022-08-03T11:49:46;34.70;48.80
37342;DHT22;58643;49.052;8.518;2022-08-03T11:52:13;35.10;48.30
37342;DHT22;58643;49.052;8.518;2022-08-03T11:54:40;35.60;48.00
37342;DHT22;58643;49.052;8.518;2022-08-03T11:57:05;35.30;46.90
37342;DHT22;58643;49.052;8.518;2022-08-03T11:59:32;34.90;47.80
37342;DHT22;58643;49.052;8.518;2022-08-03T12:02:09;34.70;46.90
37342;DHT22;58643;49.052;8.518;2022-08-03T12:07:17;35.40;46.90
37342;DHT22;58643;49.052;8.518;2022-08-03T12:09:43;35.90;46.80
37342;DHT22;58643;49.052;8.518;2022-08-03T12:12:26;36.10;45.80
37342;DHT22;58643;49.052;8.518;2022-08-03T12:14:51;35.90;46.90
37342;DHT22;58643;49.052;8.518;2022-08-03T12:17:17;35.80;46.80
37342;DHT22;58643;49.052;8.518;2022-08-03T12:19:43;36.30;46.00
37342;DHT22;58643;49.052;8.518;2022-08-03T12:22:09;36.20;45.50
37342;DHT22;58643;49.052;8.518;2022-08-03T12:24:41;36.20;45.60
37342;DHT22;58643;49.052;8.518;2022-08-03T12:27:07;36.20;45.50
37342;DHT22;58643;49.052;8.518;2022-08-03T12:29:32;36.40;45.40
37342;DHT22;58643;49.052;8.518;2022-08-03T12:31:58;36.60;44.80
37342;DHT22;58643;49.052;8.518;2022-08-03T12:34:44;37.00;44.90
37342;DHT22;58643;49.052;8.518;2022-08-03T12:37:11;38.00;43.40
37342;DHT22;58643;49.052;8.518;2022-08-03T12:39:37;38.80;42.20
37342;DHT22;58643;49.052;8.518;2022-08-03T12:42:03;39.60;41.80
37342;DHT22;58643;49.052;8.518;2022-08-03T12:44:34;39.90;40.70
37342;DHT22;58643;49.052;8.518;2022-08-03T12:47:01;40.20;40.30
37342;DHT22;58643;49.052;8.518;2022-08-03T12:49:27;40.00;40.80
37342;DHT22;58643;49.052;8.518;2022-08-03T12:54:22;40.80;39.60
37342;DHT22;58643;49.052;8.518;2022-08-03T12:57:01;41.30;39.60
37342;DHT22;58643;49.052;8.518;2022-08-03T12:59:35;41.40;39.20
37342;DHT22;58643;49.052;8.518;2022-08-03T13:02:04;41.90;38.80
37342;DHT22;58643;49.052;8.518;2022-08-03T13:04:33;41.50;38.30
37342;DHT22;58643;49.052;8.518;2022-08-03T13:07:05;41.70;38.30
37342;DHT22;58643;49.052;8.518;2022-08-03T13:09:50;42.50;37.70
37342;DHT22;58643;49.052;8.518;2022-08-03T13:12:22;43.50;36.60
37342;DHT22;58643;49.052;8.518;2022-08-03T13:14:50;42.90;36.70
37342;DHT22;58643;49.052;8.518;2022-08-03T13:17:16;43.30;36.70
37342;DHT22;58643;49.052;8.518;2022-08-03T13:19:43;44.00;36.80
37342;DHT22;58643;49.052;8.518;2022-08-03T13:22:13;44.60;35.60
37342;DHT22;58643;49.052;8.518;2022-08-03T13:24:40;44.30;36.40
37342;DHT22;58643;49.052;8.518;2022-08-03T13:27:06;45.20;35.10
37342;DHT22;58643;49.052;8.518;2022-08-03T13:29:33;45.40;35.00
37342;DHT22;58643;49.052;8.518;2022-08-03T13:31:59;45.40;34.30
37342;DHT22;58643;49.052;8.518;2022-08-03T13:34:25;44.10;35.20
37342;DHT22;58643;49.052;8.518;2022-08-03T13:36:51;44.10;35.60
37342;DHT22;58643;49.052;8.518;2022-08-03T13:39:17;44.00;35.30
37342;DHT22;58643;49.052;8.518;2022-08-03T13:41:44;43.60;34.90
37342;DHT22;58643;49.052;8.518;2022-08-03T13:44:10;43.40;36.20
37342;DHT22;58643;49.052;8.518;2022-08-03T13:46:36;42.50;36.60
37342;DHT22;58643;49.052;8.518;2022-08-03T13:49:02;42.60;36.50
37342;DHT22;58643;49.052;8.518;2022-08-03T13:51:27;42.60;36.60
37342;DHT22;58643;49.052;8.518;2022-08-03T13:53:53;42.90;35.80
37342;DHT22;58643;49.052;8.518;2022-08-03T13:56:19;43.90;35.10
37342;DHT22;58643;49.052;8.518;2022-08-03T13:58:44;44.60;35.50
37342;DHT22;58643;49.052;8.518;2022-08-03T14:01:10;45.60;34.50
37342;DHT22;58643;49.052;8.518;2022-08-03T14:03:36;45.40;34.10
37342;DHT22;58643;49.052;8.518;2022-08-03T14:06:01;46.20;33.50
37342;DHT22;58643;49.052;8.518;2022-08-03T14:08:27;46.50;33.40
37342;DHT22;58643;49.052;8.518;2022-08-03T14:10:53;47.20;33.20
37342;DHT22;58643;49.052;8.518;2022-08-03T14:13:19;47.40;32.60
37342;DHT22;58643;49.052;8.518;2022-08-03T14:15:46;47.20;32.30
37342;DHT22;58643;49.052;8.518;2022-08-03T14:18:12;46.90;32.70
37342;DHT22;58643;49.052;8.518;2022-08-03T14:20:37;47.20;32.90
37342;DHT22;58643;49.052;8.518;2022-08-03T14:23:03;47.60;32.50
37342;DHT22;58643;49.052;8.518;2022-08-03T14:25:29;46.70;33.10
37342;DHT22;58643;49.052;8.518;2022-08-03T14:27:55;47.10;33.30
37342;DHT22;58643;49.052;8.518;2022-08-03T14:30:21;47.90;32.10
37342;DHT22;58643;49.052;8.518;2022-08-03T14:32:47;48.40;32.00
37342;DHT22;58643;49.052;8.518;2022-08-03T14:35:12;48.80;31.60
37342;DHT22;58643;49.052;8.518;2022-08-03T14:37:38;48.70;31.30
37342;DHT22;58643;49.052;8.518;2022-08-03T14:40:04;48.60;31.00
37342;DHT22;58643;49.052;8.518;2022-08-03T14:42:30;48.20;31.60
37342;DHT22;58643;49.052;8.518;2022-08-03T14:44:56;46.70;32.50
37342;DHT22;58643;49.052;8.518;2022-08-03T14:47:21;46.90;32.70
37342;DHT22;58643;49.052;8.518;2022-08-03T14:49:47;47.90;32.80
37342;DHT22;58643;49.052;8.518;2022-08-03T14:52:13;46.70;32.80
37342;DHT22;58643;49.052;8.518;2022-08-03T14:54:38;46.80;32.80
37342;DHT22;58643;49.052;8.518;2022-08-03T14:57:04;47.70;32.20
37342;DHT22;58643;49.052;8.518;2022-08-03T14:59:29;48.40;31.70
37342;DHT22;58643;49.052;8.518;2022-08-03T15:01:55;48.60;31.50
37342;DHT22;58643;49.052;8.518;2022-08-03T15:04:21;48.00;31.60
37342;DHT22;58643;49.052;8.518;2022-08-03T15:06:46;48.20;31.30
37342;DHT22;58643;49.052;8.518;2022-08-03T15:09:12;48.80;31.30
37342;DHT22;58643;49.052;8.518;2022-08-03T15:11:38;48.70;31.10
37342;DHT22;58643;49.052;8.518;2022-08-03T15:14:03;48.50;31.80
37342;DHT22;58643;49.052;8.518;2022-08-03T15:16:29;48.30;31.60
37342;DHT22;58643;49.052;8.518;2022-08-03T15:18:55;48.50;31.50
37342;DHT22;58643;49.052;8.518;2022-08-03T15:21:20;49.00;31.20
37342;DHT22;58643;49.052;8.518;2022-08-03T15:23:46;48.80;30.80
37342;DHT22;58643;49.052;8.518;2022-08-03T15:26:11;49.70;30.40
37342;DHT22;58643;49.052;8.518;2022-08-03T15:28:37;49.80;30.30
37342;DHT22;58643;49.052;8.518;2022-08-03T15:31:03;50.00;30.50
37342;DHT22;58643;49.052;8.518;2022-08-03T15:33:29;49.50;30.90
37342;DHT22;58643;49.052;8.518;2022-08-03T15:35:55;49.60;30.70
37342;DHT22;58643;49.052;8.518;2022-08-03T15:38:21;49.40;30.20
37342;DHT22;58643;49.052;8.518;2022-08-03T15:40:50;49.20;30.70
37342;DHT22;58643;49.052;8.518;2022-08-03T15:43:19;48.60;30.90
37342;DHT22;58643;49.052;8.518;2022-08-03T15:45:45;48.60;30.70
37342;DHT22;58643;49.052;8.518;2022-08-03T15:48:10;48.30;31.30
37342;DHT22;58643;49.052;8.518;2022-08-03T15:50:36;47.90;31.90
37342;DHT22;58643;49.052;8.518;2022-08-03T15:53:02;48.60;31.20
37342;DHT22;58643;49.052;8.518;2022-08-03T15:55:28;48.60;30.50
37342;DHT22;58643;49.052;8.518;2022-08-03T15:57:53;48.10;30.90
37342;DHT22;58643;49.052;8.518;2022-08-03T16:00:19;47.80;31.50
37342;DHT22;58643;49.052;8.518;2022-08-03T16:02:45;48.00;31.30
37342;DHT22;58643;49.052;8.518;2022-08-03T16:05:10;48.30;31.10
37342;DHT22;58643;49.052;8.518;2022-08-03T16:07:36;46.90;32.20
37342;DHT22;58643;49.052;8.518;2022-08-03T16:10:08;47.40;31.50